createdAt,value
2023-04-13T00:00:13.214Z,13.82
2023-04-13T00:02:43.724Z,13.86
2023-04-13T00:05:13.445Z,13.91
2023-04-13T00:07:45.830Z,13.94
2023-04-13T00:10:19.385Z,13.76
2023-04-13T00:12:48.339Z,13.80
2023-04-13T00:15:21.909Z,13.92
2023-04-13T00:17:54.342Z,13.86
2023-04-13T00:20:23.906Z,13.76
2023-04-13T00:22:54.049Z,13.65
2023-04-13T00:25:23.001Z,13.53
2023-04-13T00:27:55.143Z,13.62
2023-04-13T00:33:25.724Z,13.59
2023-04-13T00:36:32.708Z,13.65
2023-04-13T00:39:01.243Z,13.73
2023-04-13T00:41:29.834Z,13.81
2023-04-13T00:43:59.364Z,13.85
2023-04-13T00:46:29.910Z,13.87
2023-04-13T00:49:04.342Z,13.89
2023-04-13T00:51:33.416Z,13.87
2023-04-13T00:54:01.548Z,13.85
2023-04-13T00:56:49.513Z,13.84
2023-04-13T00:59:18.952Z,13.91
2023-04-13T01:01:50.921Z,13.83
2023-04-13T01:04:22.257Z,13.59
2023-04-13T01:07:07.810Z,13.70
2023-04-13T01:09:41.505Z,13.68
2023-04-13T01:12:24.583Z,13.57
2023-04-13T01:14:58.342Z,13.61
2023-04-13T01:17:30.078Z,13.50
2023-04-13T01:20:28.080Z,13.60
2023-04-13T01:23:01.928Z,13.42
2023-04-13T01:25:47.687Z,13.46
2023-04-13T01:28:20.162Z,13.44
2023-04-13T01:30:57.759Z,13.36
2023-04-13T01:33:31.096Z,13.47
2023-04-13T01:36:03.782Z,13.41
2023-04-13T01:38:35.978Z,13.46
2023-04-13T01:41:05.386Z,13.41
2023-04-13T01:43:38.263Z,13.43
2023-04-13T01:46:12.258Z,13.45
2023-04-13T01:49:08.142Z,13.50
2023-04-13T01:51:51.492Z,13.50
2023-04-13T01:54:27.006Z,13.50
2023-04-13T01:56:57.434Z,13.43
2023-04-13T01:59:25.896Z,13.46
2023-04-13T02:01:55.240Z,13.46
2023-04-13T02:04:26.060Z,13.46
2023-04-13T02:07:04.471Z,13.34
2023-04-13T02:09:38.318Z,13.34
2023-04-13T02:12:08.920Z,13.33
2023-04-13T02:14:41.640Z,13.29
2023-04-13T02:17:10.796Z,13.26
2023-04-13T02:19:44.252Z,13.31
2023-04-13T02:22:22.542Z,13.27
2023-04-13T02:24:52.770Z,13.33
2023-04-13T02:27:22.994Z,13.28
2023-04-13T02:29:53.176Z,13.19
2023-04-13T02:32:23.106Z,13.16
2023-04-13T02:34:53.726Z,13.01
2023-04-13T02:37:23.991Z,13.15
2023-04-13T02:39:55.601Z,13.22
2023-04-13T02:42:26.684Z,13.03
2023-04-13T02:44:55.815Z,12.94
2023-04-13T02:47:29.001Z,13.12
2023-04-13T02:50:04.239Z,13.14
2023-04-13T02:52:42.993Z,13.09
2023-04-13T02:55:17.311Z,12.81
2023-04-13T02:58:24.597Z,12.80
2023-04-13T03:01:01.362Z,12.85
2023-04-13T03:03:33.861Z,12.86
2023-04-13T03:06:03.761Z,12.90
2023-04-13T03:08:43.867Z,12.95
2023-04-13T03:11:27.356Z,12.91
2023-04-13T03:14:07.969Z,12.80
2023-04-13T03:16:37.645Z,12.74
2023-04-13T03:19:10.798Z,12.83
2023-04-13T03:21:47.505Z,12.64
2023-04-13T03:24:46.884Z,12.84
2023-04-13T03:27:23.125Z,12.87
2023-04-13T03:29:59.205Z,12.93
2023-04-13T03:32:55.567Z,12.66
2023-04-13T03:35:31.764Z,12.67
2023-04-13T03:38:04.601Z,12.72
2023-04-13T03:40:48.662Z,12.75
2023-04-13T03:46:18.231Z,12.94
2023-04-13T03:48:47.454Z,12.92
2023-04-13T03:51:52.551Z,12.85
2023-04-13T03:54:30.129Z,12.91
2023-04-13T03:57:02.940Z,13.03
2023-04-13T03:59:34.382Z,12.93
2023-04-13T04:02:07.969Z,12.90
2023-04-13T04:04:43.246Z,12.95
2023-04-13T04:07:25.811Z,12.99
2023-04-13T04:10:05.381Z,13.05
2023-04-13T04:12:39.529Z,12.82
2023-04-13T04:15:14.865Z,12.68
2023-04-13T04:17:48.784Z,12.86
2023-04-13T04:20:17.831Z,12.79
2023-04-13T04:22:53.688Z,12.67
2023-04-13T04:25:38.476Z,12.56
2023-04-13T04:28:07.849Z,12.74
2023-04-13T04:30:37.126Z,12.75
2023-04-13T04:33:11.269Z,12.80
2023-04-13T04:35:51.943Z,12.56
2023-04-13T04:38:35.867Z,12.71
2023-04-13T04:41:08.829Z,12.77
2023-04-13T04:46:55.527Z,12.83
2023-04-13T04:49:28.207Z,12.66
2023-04-13T04:52:02.736Z,12.85
2023-04-13T04:54:32.507Z,12.52
2023-04-13T04:57:17.356Z,12.50
2023-04-13T04:59:46.840Z,12.72
2023-04-13T05:02:23.374Z,12.86
2023-04-13T05:04:53.500Z,12.99
2023-04-13T05:07:23.703Z,12.93
2023-04-13T05:09:52.370Z,13.03
2023-04-13T05:12:24.991Z,13.09
2023-04-13T05:15:02.098Z,13.00
2023-04-13T05:17:33.566Z,13.04
2023-04-13T05:20:07.578Z,13.00
2023-04-13T05:22:55.625Z,13.20
2023-04-13T05:25:24.706Z,13.07
2023-04-13T05:28:06.757Z,13.39
2023-04-13T05:31:04.030Z,13.46
2023-04-13T05:33:38.405Z,13.34
2023-04-13T05:36:07.157Z,13.40
2023-04-13T05:38:38.096Z,13.56
2023-04-13T05:41:07.833Z,13.47
2023-04-13T05:43:38.142Z,13.32
2023-04-13T05:46:07.150Z,13.10
2023-04-13T05:48:38.233Z,13.28
2023-04-13T05:51:38.589Z,13.31
2023-04-13T05:54:13.777Z,13.39
2023-04-13T05:56:50.201Z,13.57
2023-04-13T05:59:52.403Z,13.57
2023-04-13T06:02:27.356Z,13.63
2023-04-13T06:05:03.030Z,13.28
2023-04-13T14:46:15.185Z,14.14
2023-04-13T14:48:44.581Z,13.95
2023-04-13T14:51:18.638Z,13.95
2023-04-13T14:53:49.535Z,13.74
2023-04-13T14:56:18.274Z,13.69
2023-04-13T14:58:46.192Z,13.74
2023-04-13T15:01:18.931Z,13.81
2023-04-13T15:03:49.475Z,13.86
2023-04-13T15:06:19.208Z,13.56
2023-04-13T15:08:47.812Z,13.58
2023-04-13T15:11:19.745Z,13.72
2023-04-13T15:13:49.308Z,13.90
2023-04-13T15:16:17.363Z,13.78
2023-04-13T15:18:45.346Z,13.79
2023-04-13T15:21:16.235Z,13.88
2023-04-13T15:23:45.528Z,13.95
2023-04-13T15:26:19.815Z,13.67
2023-04-13T15:28:48.980Z,13.80
2023-04-13T15:31:17.038Z,13.79
2023-04-13T15:33:45.354Z,13.67
2023-04-13T15:36:19.802Z,13.74
2023-04-13T15:38:47.742Z,13.66
2023-04-13T15:41:15.424Z,13.58
2023-04-13T15:43:49.517Z,13.58
2023-04-13T15:46:17.837Z,13.50
2023-04-13T15:48:50.546Z,13.64
2023-04-13T15:51:18.282Z,13.64
2023-04-13T15:53:47.758Z,13.67
2023-04-13T15:56:16.282Z,13.64
2023-04-13T15:58:44.138Z,13.55
2023-04-13T16:01:12.054Z,13.78
2023-04-13T16:03:40.553Z,13.82
2023-04-13T16:06:08.812Z,13.75
2023-04-13T16:08:36.480Z,13.82
2023-04-13T16:11:04.557Z,13.86
2023-04-13T16:13:48.056Z,13.92
2023-04-13T16:16:24.445Z,13.85
2023-04-13T16:19:00.584Z,13.81
2023-04-13T16:21:30.530Z,13.83
2023-04-13T16:23:58.184Z,13.83
2023-04-13T16:26:25.990Z,13.71
2023-04-13T16:28:53.942Z,13.53
2023-04-13T16:31:21.786Z,13.70
2023-04-13T16:33:50.185Z,13.67
2023-04-13T16:36:18.189Z,13.65
2023-04-13T16:38:46.378Z,13.66
2023-04-13T16:41:14.220Z,13.61
2023-04-13T16:43:43.710Z,13.52
2023-04-13T16:46:14.609Z,13.27
2023-04-13T16:48:44.806Z,13.42
2023-04-13T16:51:12.596Z,13.39
2023-04-13T16:53:44.238Z,13.43
2023-04-13T16:56:12.036Z,13.30
2023-04-13T16:58:39.741Z,12.98
2023-04-13T17:01:08.106Z,13.05
2023-04-13T17:03:36.896Z,13.08
2023-04-13T17:06:05.202Z,12.94
2023-04-13T17:08:32.896Z,13.01
2023-04-13T17:11:04.906Z,12.91
2023-04-13T17:13:34.309Z,12.93
2023-04-13T17:16:06.603Z,12.93
2023-04-13T17:18:38.893Z,12.97
2023-04-13T17:21:07.622Z,13.00
2023-04-13T17:23:35.805Z,12.90
2023-04-13T17:26:08.578Z,12.99
2023-04-13T17:28:36.746Z,12.96
2023-04-13T17:41:04.757Z,13.03
2023-04-13T17:47:36.946Z,13.00
2023-04-13T17:50:22.061Z,13.05
2023-04-13T17:52:53.398Z,12.95
2023-04-13T17:55:31.205Z,13.03
2023-04-13T17:57:59.719Z,13.02
2023-04-13T18:00:29.291Z,13.02
2023-04-13T18:03:01.174Z,12.96
2023-04-13T18:05:32.458Z,12.88
2023-04-13T18:08:03.745Z,12.72
2023-04-13T18:10:32.863Z,12.64
2023-04-13T18:13:08.508Z,12.57
2023-04-13T18:15:40.288Z,12.63
2023-04-13T18:18:08.446Z,12.69
2023-04-13T18:20:43.551Z,12.56
2023-04-13T18:23:12.628Z,12.62
2023-04-13T18:25:42.843Z,12.69
2023-04-13T18:28:12.797Z,12.72
2023-04-13T18:30:41.778Z,12.81
2023-04-13T18:33:09.851Z,12.79
2023-04-13T18:35:50.574Z,12.74
2023-04-13T18:38:19.321Z,12.85
2023-04-13T18:40:50.418Z,12.80
2023-04-13T18:43:18.854Z,12.77
2023-04-13T18:45:47.324Z,12.76
2023-04-13T18:48:15.681Z,12.72
2023-04-13T18:50:44.711Z,12.72
2023-04-13T18:53:13.985Z,12.74
2023-04-13T18:55:43.389Z,12.72
2023-04-13T18:58:17.821Z,12.68
2023-04-13T19:00:47.927Z,12.68
2023-04-13T19:03:16.294Z,12.74
2023-04-13T19:05:44.231Z,12.68
2023-04-13T19:08:14.393Z,12.64
2023-04-13T19:10:42.503Z,12.70
2023-04-13T19:13:10.963Z,12.60
2023-04-13T19:15:40.876Z,12.71
2023-04-13T19:18:11.585Z,12.61
2023-04-13T19:20:39.513Z,12.55
2023-04-13T19:23:09.128Z,12.60
2023-04-13T19:25:39.596Z,12.50
2023-04-13T19:28:08.289Z,12.42
2023-04-13T19:30:37.458Z,12.57
2023-04-13T19:33:05.985Z,12.46
2023-04-13T19:35:34.550Z,12.33
2023-04-13T19:38:02.577Z,12.49
2023-04-13T19:40:33.288Z,12.44
2023-04-13T19:43:01.915Z,12.50
2023-04-13T19:45:31.220Z,12.34
2023-04-13T19:48:00.524Z,12.25
2023-04-13T19:50:28.969Z,12.15
2023-04-13T19:52:58.318Z,12.31
2023-04-13T19:55:34.616Z,12.20
2023-04-13T19:58:03.816Z,12.21
2023-04-13T20:00:33.217Z,12.12
2023-04-13T20:03:21.817Z,12.00
2023-04-13T20:05:51.641Z,12.09
2023-04-13T20:08:21.447Z,12.08
2023-04-13T20:10:50.173Z,12.25
2023-04-13T20:13:17.988Z,12.36
2023-04-13T20:15:49.385Z,12.22
2023-04-13T20:18:19.971Z,12.08
2023-04-13T20:20:50.790Z,12.19
2023-04-13T20:23:19.529Z,11.97
2023-04-13T20:25:48.369Z,11.88
2023-04-13T20:28:21.855Z,11.89
2023-04-13T20:30:59.937Z,11.89
2023-04-13T20:33:29.031Z,11.83
2023-04-13T20:35:57.634Z,11.89
2023-04-13T20:38:30.488Z,11.84
2023-04-13T20:40:59.839Z,11.81
2023-04-13T20:43:39.564Z,11.89
2023-04-13T20:46:11.735Z,11.80
2023-04-13T20:51:23.389Z,12.05
2023-04-13T20:53:52.491Z,11.89
2023-04-13T20:56:23.947Z,12.00
2023-04-13T20:58:57.121Z,11.97
2023-04-13T21:01:26.310Z,11.97
2023-04-13T21:03:59.169Z,12.02
2023-04-13T21:06:30.290Z,11.98
2023-04-13T21:09:01.309Z,12.01
2023-04-13T21:11:33.202Z,12.01
2023-04-13T21:14:01.978Z,11.74
2023-04-13T21:16:33.058Z,11.86
2023-04-13T21:19:06.699Z,11.79
2023-04-13T21:21:38.843Z,11.93
2023-04-13T21:24:08.748Z,11.87
2023-04-13T21:26:38.627Z,11.76
2023-04-13T21:29:08.009Z,11.96
2023-04-13T21:31:36.676Z,11.77
2023-04-13T21:34:06.937Z,11.89
2023-04-13T21:39:09.037Z,11.73
2023-04-13T21:41:39.122Z,11.63
2023-04-13T21:44:16.151Z,11.73
2023-04-13T21:46:57.248Z,11.69
2023-04-13T21:49:25.996Z,11.82
2023-04-13T21:51:58.893Z,11.81
2023-04-13T21:54:27.472Z,11.82
2023-04-13T21:56:55.382Z,11.75
2023-04-13T21:59:27.547Z,11.79
2023-04-13T22:01:57.867Z,11.85
2023-04-13T22:04:26.770Z,11.89
2023-04-13T22:06:55.018Z,11.83
2023-04-13T22:09:25.164Z,11.79
2023-04-13T22:11:54.719Z,11.80
2023-04-13T22:14:26.592Z,11.72
2023-04-13T22:16:55.646Z,11.70
2023-04-13T22:19:23.909Z,11.84
2023-04-13T22:21:51.704Z,11.87
2023-04-13T22:24:20.655Z,11.80
2023-04-13T22:26:52.781Z,11.83
2023-04-13T22:29:27.240Z,11.84
2023-04-13T22:31:55.943Z,11.82
2023-04-13T22:34:30.066Z,11.71
2023-04-13T22:37:01.367Z,11.86
2023-04-13T22:39:32.056Z,11.89
2023-04-13T22:42:00.987Z,11.74
2023-04-13T22:44:33.531Z,11.75
2023-04-13T22:47:04.691Z,11.73
2023-04-13T22:49:35.668Z,11.66
2023-04-13T22:52:04.191Z,11.75
2023-04-13T22:54:43.134Z,11.82
2023-04-13T22:57:11.656Z,11.91
2023-04-13T22:59:42.561Z,11.78
2023-04-13T23:02:12.175Z,11.83
2023-04-13T23:04:41.589Z,11.88
2023-04-13T23:07:10.771Z,11.76
2023-04-13T23:09:40.523Z,11.77
2023-04-13T23:12:10.788Z,11.80
2023-04-13T23:14:43.615Z,11.94
2023-04-13T23:17:22.784Z,11.60
2023-04-13T23:19:54.620Z,11.64
2023-04-13T23:22:23.266Z,11.78
2023-04-13T23:24:54.141Z,11.77
2023-04-13T23:27:22.973Z,11.68
2023-04-13T23:29:50.716Z,11.65
2023-04-13T23:32:19.574Z,11.56
2023-04-13T23:34:51.141Z,11.58
2023-04-13T23:37:24.481Z,11.83
2023-04-13T23:39:52.573Z,11.66
2023-04-13T23:42:21.940Z,11.46
2023-04-13T23:44:50.858Z,11.60
2023-04-13T23:47:19.326Z,11.49
2023-04-13T23:49:54.324Z,11.55
2023-04-13T23:52:26.108Z,11.78
2023-04-13T23:54:54.691Z,11.71
2023-04-13T23:57:22.924Z,11.65
2023-04-13T23:59:57.902Z,11.78
